ZKTAI NZTG-NZAR

Flight info

Callsign ZKTAI
Flight time 0h 43m
Altitude 9000
Route DODKU FIRTH
Aircraft C172/L-SFG/C

Departure

Time 2026-04-27 09:11
Airport Tauranga Airport (NZTG)

Arrival

Time 2026-04-27 09:54
Airport Ardmore Airport (NZAR)
Time Latitude Longitude Altitude Speed Heading
2026-04-27 09:05 -37.67158 176.20258 17 ft 0 kts 94°
2026-04-27 09:08 -37.67159 176.20259 17 ft 0 kts 116°
2026-04-27 09:08 -37.67206 176.20265 17 ft 8 kts 99°
2026-04-27 09:09 -37.67211 176.20346 17 ft 17 kts 94°
2026-04-27 09:09 -37.67219 176.20508 17 ft 19 kts 95°
2026-04-27 09:09 -37.67262 176.20593 17 ft 14 kts 185°
2026-04-27 09:09 -37.67337 176.20586 17 ft 14 kts 184°
2026-04-27 09:10 -37.67361 176.20514 17 ft 29 kts 273°
2026-04-27 09:10 -37.67335 176.20012 73 ft 71 kts 275°
2026-04-27 09:10 -37.67303 176.19389 304 ft 70 kts 272°
2026-04-27 09:10 -37.67273 176.18758 511 ft 75 kts 273°
2026-04-27 09:11 -37.67234 176.18077 762 ft 79 kts 273°
2026-04-27 09:11 -37.67195 176.17363 1009 ft 83 kts 273°
2026-04-27 09:11 -37.67154 176.16631 1271 ft 84 kts 272°
2026-04-27 09:11 -37.67115 176.15895 1533 ft 85 kts 272°
2026-04-27 09:12 -37.67076 176.15144 1794 ft 85 kts 272°
2026-04-27 09:12 -37.67037 176.14395 2049 ft 85 kts 272°
2026-04-27 09:12 -37.66999 176.13649 2297 ft 86 kts 271°
2026-04-27 09:12 -37.66960 176.12895 2543 ft 86 kts 271°
2026-04-27 09:13 -37.66921 176.12131 2784 ft 87 kts 271°
2026-04-27 09:13 -37.66882 176.11351 2986 ft 91 kts 271°
2026-04-27 09:13 -37.66840 176.10541 3208 ft 92 kts 271°
2026-04-27 09:13 -37.66800 176.09737 3427 ft 93 kts 271°
2026-04-27 09:14 -37.66758 176.08922 3644 ft 93 kts 271°
2026-04-27 09:14 -37.66713 176.08098 3859 ft 94 kts 271°
2026-04-27 09:14 -37.66671 176.07277 4068 ft 94 kts 270°
2026-04-27 09:14 -37.66629 176.06451 4273 ft 94 kts 270°
2026-04-27 09:15 -37.66587 176.05627 4474 ft 95 kts 270°
2026-04-27 09:15 -37.66545 176.04793 4672 ft 95 kts 270°
2026-04-27 09:15 -37.66502 176.03950 4868 ft 96 kts 270°
2026-04-27 09:15 -37.66343 176.03140 5053 ft 99 kts 301°
2026-04-27 09:16 -37.65786 176.02634 5238 ft 101 kts 339°
2026-04-27 09:16 -37.65089 176.02444 5423 ft 102 kts 353°
2026-04-27 09:16 -37.64379 176.02387 5603 ft 103 kts 359°
2026-04-27 09:16 -37.63671 176.02383 5775 ft 103 kts
2026-04-27 09:17 -37.62707 176.02426 6005 ft 104 kts
2026-04-27 09:17 -37.62231 176.02455 6119 ft 104 kts
2026-04-27 09:17 -37.61512 176.02466 6282 ft 104 kts 349°
2026-04-27 09:17 -37.60883 176.02022 6445 ft 104 kts 319°
2026-04-27 09:18 -37.60344 176.01417 6604 ft 104 kts 316°
2026-04-27 09:18 -37.59802 176.00801 6762 ft 105 kts 316°
2026-04-27 09:18 -37.59253 176.00189 6914 ft 105 kts 317°
2026-04-27 09:18 -37.58698 175.99579 7063 ft 106 kts 317°
2026-04-27 09:19 -37.58145 175.98973 7209 ft 106 kts 317°
2026-04-27 09:19 -37.57586 175.98361 7357 ft 106 kts 317°
2026-04-27 09:19 -37.57026 175.97748 7504 ft 107 kts 317°
2026-04-27 09:19 -37.56461 175.97131 7649 ft 107 kts 317°
2026-04-27 09:20 -37.55895 175.96515 7784 ft 108 kts 317°
2026-04-27 09:20 -37.55327 175.95892 7920 ft 108 kts 317°
2026-04-27 09:20 -37.54566 175.95061 8097 ft 109 kts 317°
2026-04-27 09:20 -37.54185 175.94646 8183 ft 109 kts 317°
2026-04-27 09:21 -37.53607 175.94016 8310 ft 109 kts 317°
2026-04-27 09:21 -37.53038 175.93396 8434 ft 110 kts 318°
2026-04-27 09:21 -37.52452 175.92761 8559 ft 110 kts 318°
2026-04-27 09:21 -37.51868 175.92128 8681 ft 110 kts 318°
2026-04-27 09:22 -37.51290 175.91499 8800 ft 111 kts 318°
2026-04-27 09:22 -37.50706 175.90865 8917 ft 111 kts 318°
2026-04-27 09:22 -37.50110 175.90216 8991 ft 115 kts 318°
2026-04-27 09:22 -37.49480 175.89533 9001 ft 123 kts 318°
2026-04-27 09:23 -37.48820 175.88817 8999 ft 124 kts 319°
2026-04-27 09:23 -37.48168 175.88112 8998 ft 124 kts 319°
2026-04-27 09:23 -37.47506 175.87393 8999 ft 124 kts 319°
2026-04-27 09:23 -37.46850 175.86682 8999 ft 124 kts 318°
2026-04-27 09:24 -37.46193 175.85968 8999 ft 124 kts 318°
2026-04-27 09:24 -37.45538 175.85259 8999 ft 124 kts 318°
2026-04-27 09:24 -37.44881 175.84544 8999 ft 124 kts 318°
2026-04-27 09:24 -37.44231 175.83839 8999 ft 124 kts 318°
2026-04-27 09:25 -37.43565 175.83118 8999 ft 124 kts 318°
2026-04-27 09:25 -37.42916 175.82413 8999 ft 124 kts 318°
2026-04-27 09:25 -37.42252 175.81692 8999 ft 124 kts 318°
2026-04-27 09:25 -37.41594 175.80980 8999 ft 124 kts 318°
2026-04-27 09:26 -37.40939 175.80270 8999 ft 124 kts 318°
2026-04-27 09:26 -37.40284 175.79561 8999 ft 124 kts 319°
2026-04-27 09:26 -37.39623 175.78845 8999 ft 124 kts 319°
2026-04-27 09:26 -37.38748 175.77899 8999 ft 124 kts 319°
2026-04-27 09:27 -37.38309 175.77423 8999 ft 124 kts 319°
2026-04-27 09:27 -37.37653 175.76712 8999 ft 125 kts 318°
2026-04-27 09:27 -37.36995 175.76000 8999 ft 125 kts 318°
2026-04-27 09:27 -37.36339 175.75290 8999 ft 125 kts 319°
2026-04-27 09:28 -37.35682 175.74579 8999 ft 125 kts 319°
2026-04-27 09:28 -37.35018 175.73863 8999 ft 125 kts 319°
2026-04-27 09:28 -37.34359 175.73154 8999 ft 125 kts 319°
2026-04-27 09:28 -37.33699 175.72443 8999 ft 125 kts 319°
2026-04-27 09:29 -37.33042 175.71735 8999 ft 125 kts 319°
2026-04-27 09:29 -37.32383 175.71024 8999 ft 125 kts 319°
2026-04-27 09:29 -37.31727 175.70316 8999 ft 125 kts 318°
2026-04-27 09:29 -37.31068 175.69603 8999 ft 125 kts 318°
2026-04-27 09:30 -37.30410 175.68892 8999 ft 125 kts 319°
2026-04-27 09:30 -37.29748 175.68178 8999 ft 125 kts 319°
2026-04-27 09:30 -37.28876 175.67238 8999 ft 125 kts 319°
2026-04-27 09:30 -37.28435 175.66763 8999 ft 125 kts 319°
2026-04-27 09:31 -37.27775 175.66052 8999 ft 125 kts 318°
2026-04-27 09:31 -37.27110 175.65335 8999 ft 125 kts 318°
2026-04-27 09:31 -37.26458 175.64632 8999 ft 125 kts 318°
2026-04-27 09:31 -37.25795 175.63916 8999 ft 125 kts 319°
2026-04-27 09:32 -37.25138 175.63209 8999 ft 125 kts 319°
2026-04-27 09:32 -37.24477 175.62497 8999 ft 125 kts 319°
2026-04-27 09:32 -37.23822 175.61793 8999 ft 125 kts 319°
2026-04-27 09:32 -37.23157 175.61078 8999 ft 125 kts 319°
2026-04-27 09:33 -37.22498 175.60367 8999 ft 125 kts 319°
2026-04-27 09:33 -37.21839 175.59659 8999 ft 125 kts 319°
2026-04-27 09:33 -37.21175 175.58943 9000 ft 125 kts 319°
2026-04-27 09:33 -37.20522 175.58243 9000 ft 125 kts 319°
2026-04-27 09:34 -37.19854 175.57524 9000 ft 125 kts 319°
2026-04-27 09:34 -37.19199 175.56819 9000 ft 125 kts 319°
2026-04-27 09:34 -37.18530 175.56104 9000 ft 125 kts 319°
2026-04-27 09:34 -37.17880 175.55406 9000 ft 125 kts 319°
2026-04-27 09:35 -37.17205 175.54677 9000 ft 125 kts 319°
2026-04-27 09:35 -37.16547 175.53967 9000 ft 125 kts 319°
2026-04-27 09:35 -37.15886 175.53255 9000 ft 125 kts 319°
2026-04-27 09:35 -37.14994 175.52293 9000 ft 125 kts 319°
2026-04-27 09:36 -37.14560 175.51828 9000 ft 125 kts 319°
2026-04-27 09:36 -37.13892 175.51111 9000 ft 125 kts 319°
2026-04-27 09:36 -37.13229 175.50400 9000 ft 125 kts 320°
2026-04-27 09:36 -37.12563 175.49686 9000 ft 125 kts 320°
2026-04-27 09:37 -37.11894 175.48967 9000 ft 126 kts 320°
2026-04-27 09:37 -37.11235 175.48262 9000 ft 126 kts 320°
2026-04-27 09:37 -37.10566 175.47543 9000 ft 126 kts 320°
2026-04-27 09:37 -37.09900 175.46831 9000 ft 126 kts 320°
2026-04-27 09:38 -37.09227 175.46109 9000 ft 126 kts 320°
2026-04-27 09:38 -37.08563 175.45398 9000 ft 126 kts 320°
2026-04-27 09:38 -37.07896 175.44684 8998 ft 126 kts 320°
2026-04-27 09:38 -37.07211 175.43950 8952 ft 129 kts 320°
2026-04-27 09:39 -37.06533 175.43227 8905 ft 129 kts 320°
2026-04-27 09:39 -37.05843 175.42488 8857 ft 129 kts 320°
2026-04-27 09:39 -37.05129 175.41728 8545 ft 138 kts 320°
2026-04-27 09:39 -37.04425 175.40977 8230 ft 127 kts 320°
2026-04-27 09:40 -37.03794 175.40299 8101 ft 116 kts 320°
2026-04-27 09:40 -37.03172 175.39633 7987 ft 119 kts 320°
2026-04-27 09:40 -37.02517 175.38934 7720 ft 130 kts 320°
2026-04-27 09:40 -37.01833 175.38207 7388 ft 128 kts 320°
2026-04-27 09:41 -37.01165 175.37494 7061 ft 124 kts 320°
2026-04-27 09:41 -37.00524 175.36807 6786 ft 117 kts 320°
2026-04-27 09:41 -36.99905 175.36147 6536 ft 119 kts 320°
2026-04-27 09:41 -36.99332 175.35413 6246 ft 118 kts 306°
2026-04-27 09:42 -36.98885 175.34555 5966 ft 116 kts 301°
2026-04-27 09:42 -36.98351 175.33405 5608 ft 114 kts 299°
2026-04-27 09:42 -36.98091 175.32829 5415 ft 115 kts 298°
2026-04-27 09:42 -36.97697 175.31950 5113 ft 116 kts 298°
2026-04-27 09:43 -36.97309 175.31081 4814 ft 115 kts 298°
2026-04-27 09:43 -36.96919 175.30205 4512 ft 114 kts 298°
2026-04-27 09:43 -36.96533 175.29336 4211 ft 113 kts 298°
2026-04-27 09:43 -36.96156 175.28491 3918 ft 111 kts 298°
2026-04-27 09:44 -36.95786 175.27655 3629 ft 109 kts 298°
2026-04-27 09:44 -36.95441 175.26881 3384 ft 98 kts 298°
2026-04-27 09:44 -36.95117 175.26155 3128 ft 92 kts 298°
2026-04-27 09:44 -36.94821 175.25452 2936 ft 91 kts 288°
2026-04-27 09:45 -36.94766 175.24620 2901 ft 100 kts 264°
2026-04-27 09:45 -36.94860 175.23721 2856 ft 104 kts 257°
2026-04-27 09:45 -36.94998 175.22861 2803 ft 98 kts 254°
2026-04-27 09:45 -36.95158 175.22018 2757 ft 102 kts 253°
2026-04-27 09:46 -36.95336 175.21153 2747 ft 101 kts 252°
2026-04-27 09:46 -36.95519 175.20293 2750 ft 105 kts 251°
2026-04-27 09:46 -36.95712 175.19403 2749 ft 106 kts 252°
2026-04-27 09:46 -36.95905 175.18510 2748 ft 106 kts 252°
2026-04-27 09:47 -36.96101 175.17612 2748 ft 106 kts 252°
2026-04-27 09:47 -36.96297 175.16713 2748 ft 106 kts 252°
2026-04-27 09:47 -36.96492 175.15822 2748 ft 106 kts 252°
2026-04-27 09:47 -36.96689 175.14923 2749 ft 108 kts 252°
2026-04-27 09:48 -36.96891 175.14002 2749 ft 110 kts 252°
2026-04-27 09:48 -36.97093 175.13071 2747 ft 111 kts 252°
2026-04-27 09:48 -36.97296 175.12134 2622 ft 111 kts 252°
2026-04-27 09:48 -36.97496 175.11217 2488 ft 109 kts 252°
2026-04-27 09:49 -36.97692 175.10327 2348 ft 103 kts 250°
2026-04-27 09:49 -36.97946 175.09502 2212 ft 100 kts 244°
2026-04-27 09:49 -36.98228 175.08716 2079 ft 99 kts 242°
2026-04-27 09:49 -36.98517 175.07938 1945 ft 98 kts 242°
2026-04-27 09:50 -36.98807 175.07159 1811 ft 98 kts 242°
2026-04-27 09:50 -36.99189 175.06128 1631 ft 98 kts 242°
2026-04-27 09:50 -36.99381 175.05609 1541 ft 98 kts 243°
2026-04-27 09:50 -36.99670 175.04828 1404 ft 97 kts 243°
2026-04-27 09:51 -36.99936 175.04105 1270 ft 86 kts 242°
2026-04-27 09:51 -37.00180 175.03453 1145 ft 80 kts 240°
2026-04-27 09:51 -37.00380 175.02889 1062 ft 67 kts 241°
2026-04-27 09:51 -37.00553 175.02373 942 ft 64 kts 244°
2026-04-27 09:52 -37.00661 175.01817 808 ft 67 kts 258°
2026-04-27 09:52 -37.00721 175.01242 733 ft 67 kts 260°
2026-04-27 09:52 -37.00796 175.00665 667 ft 65 kts 250°
2026-04-27 09:52 -37.00991 175.00162 619 ft 63 kts 233°
2026-04-27 09:53 -37.01263 174.99721 558 ft 64 kts 224°
2026-04-27 09:53 -37.01576 174.99321 482 ft 63 kts 220°
2026-04-27 09:53 -37.01894 174.98940 389 ft 63 kts 222°
2026-04-27 09:53 -37.02203 174.98553 289 ft 62 kts 221°
2026-04-27 09:54 -37.02512 174.98172 189 ft 61 kts 221°
2026-04-27 09:54 -37.02805 174.97804 121 ft 57 kts 222°
2026-04-27 09:54 -37.03021 174.97530 119 ft 32 kts 220°
2026-04-27 09:54 -37.03115 174.97411 120 ft 11 kts 226°
2026-04-27 09:55 -37.03138 174.97397 120 ft 0 kts 134°
2026-04-27 09:55 -37.03154 174.97380 120 ft 13 kts 236°
2026-04-27 09:55 -37.03278 174.97231 120 ft 7 kts 189°
2026-04-27 09:56 -37.03312 174.97252 120 ft 4 kts 192°
2026-04-27 09:56 -37.03357 174.97197 119 ft 11 kts 227°
2026-04-27 09:56 -37.03397 174.97144 119 ft 0 kts 221°
2026-04-27 09:56 -37.03446 174.97082 119 ft 9 kts 219°
2026-04-27 09:57 -37.03510 174.97002 119 ft 12 kts 228°
2026-04-27 09:57 -37.03578 174.96956 119 ft 10 kts 138°
2026-04-27 09:57 -37.03599 174.97000 119 ft 1 kts 202°
2026-04-27 09:57 -37.03601 174.97000 119 ft 0 kts 189°